sensor_id;sensor_type;location;lat;lon;timestamp;pressure;altitude;pressure_sealevel;temperature;humidity
68580;BME280;55555;52.136;5.424;2022-12-18T00:01:22;103095.91;;;-2.91;96.49
68580;BME280;55555;52.136;5.424;2022-12-18T00:03:52;103094.28;;;-2.89;96.99
68580;BME280;55555;52.136;5.424;2022-12-18T00:06:20;103090.66;;;-2.93;96.50
68580;BME280;55555;52.136;5.424;2022-12-18T00:08:48;103081.31;;;-3.04;96.75
68580;BME280;55555;52.136;5.424;2022-12-18T00:11:18;103077.31;;;-3.14;96.16
68580;BME280;55555;52.136;5.424;2022-12-18T00:13:47;103073.06;;;-3.12;95.88
68580;BME280;55555;52.136;5.424;2022-12-18T00:16:17;103069.13;;;-3.20;96.13
68580;BME280;55555;52.136;5.424;2022-12-18T00:18:48;103074.88;;;-3.25;95.83
68580;BME280;55555;52.136;5.424;2022-12-18T00:21:16;103074.94;;;-3.24;96.44
68580;BME280;55555;52.136;5.424;2022-12-18T00:23:44;103082.13;;;-3.20;96.27
68580;BME280;55555;52.136;5.424;2022-12-18T00:26:24;103082.50;;;-3.28;96.58
68580;BME280;55555;52.136;5.424;2022-12-18T00:29:00;103087.94;;;-3.24;96.45
68580;BME280;55555;52.136;5.424;2022-12-18T00:31:31;103089.59;;;-3.26;95.79
68580;BME280;55555;52.136;5.424;2022-12-18T00:34:00;103081.50;;;-3.31;96.33
68580;BME280;55555;52.136;5.424;2022-12-18T00:36:33;103080.88;;;-3.26;96.68
68580;BME280;55555;52.136;5.424;2022-12-18T00:39:03;103069.72;;;-3.24;95.90
68580;BME280;55555;52.136;5.424;2022-12-18T00:41:30;103075.03;;;-3.22;96.51
68580;BME280;55555;52.136;5.424;2022-12-18T00:44:17;103074.78;;;-3.27;96.22
68580;BME280;55555;52.136;5.424;2022-12-18T00:46:46;103072.91;;;-3.29;96.48
68580;BME280;55555;52.136;5.424;2022-12-18T00:49:18;103078.09;;;-3.29;96.77
68580;BME280;55555;52.136;5.424;2022-12-18T00:51:46;103072.09;;;-3.28;96.18
68580;BME280;55555;52.136;5.424;2022-12-18T00:54:14;103080.50;;;-3.33;96.59
68580;BME280;55555;52.136;5.424;2022-12-18T00:56:42;103073.25;;;-3.38;96.59
68580;BME280;55555;52.136;5.424;2022-12-18T00:59:17;103072.56;;;-3.36;96.36
68580;BME280;55555;52.136;5.424;2022-12-18T01:01:45;103071.56;;;-3.38;96.43
68580;BME280;55555;52.136;5.424;2022-12-18T01:04:13;103069.06;;;-3.36;95.96
68580;BME280;55555;52.136;5.424;2022-12-18T01:06:44;103064.56;;;-3.39;96.85
68580;BME280;55555;52.136;5.424;2022-12-18T01:09:11;103059.88;;;-3.44;96.21
68580;BME280;55555;52.136;5.424;2022-12-18T01:11:38;103061.53;;;-3.46;96.79
68580;BME280;55555;52.136;5.424;2022-12-18T01:14:05;103063.13;;;-3.48;95.87
68580;BME280;55555;52.136;5.424;2022-12-18T01:16:32;103059.44;;;-3.52;96.57
68580;BME280;55555;52.136;5.424;2022-12-18T01:18:59;103065.53;;;-3.51;96.46
68580;BME280;55555;52.136;5.424;2022-12-18T01:21:27;103066.34;;;-3.52;96.22
68580;BME280;55555;52.136;5.424;2022-12-18T01:23:55;103069.50;;;-3.58;96.90
68580;BME280;55555;52.136;5.424;2022-12-18T01:26:24;103075.13;;;-3.50;96.53
68580;BME280;55555;52.136;5.424;2022-12-18T01:28:54;103083.84;;;-3.50;96.49
68580;BME280;55555;52.136;5.424;2022-12-18T01:31:25;103086.34;;;-3.51;96.65
68580;BME280;55555;52.136;5.424;2022-12-18T01:33:54;103086.25;;;-3.53;96.48
68580;BME280;55555;52.136;5.424;2022-12-18T01:36:24;103088.59;;;-3.57;96.30
68580;BME280;55555;52.136;5.424;2022-12-18T01:38:54;103085.91;;;-3.59;96.47
68580;BME280;55555;52.136;5.424;2022-12-18T01:41:24;103089.31;;;-3.60;96.36
68580;BME280;55555;52.136;5.424;2022-12-18T01:43:55;103089.31;;;-3.60;96.20
68580;BME280;55555;52.136;5.424;2022-12-18T01:46:27;103090.09;;;-3.61;96.79
68580;BME280;55555;52.136;5.424;2022-12-18T01:48:57;103091.81;;;-3.61;96.60
68580;BME280;55555;52.136;5.424;2022-12-18T01:51:27;103091.44;;;-3.68;96.64
68580;BME280;55555;52.136;5.424;2022-12-18T01:53:57;103087.06;;;-3.69;96.42
68580;BME280;55555;52.136;5.424;2022-12-18T01:56:24;103089.28;;;-3.75;96.96
68580;BME280;55555;52.136;5.424;2022-12-18T01:58:59;103093.56;;;-3.75;96.99
68580;BME280;55555;52.136;5.424;2022-12-18T02:01:30;103093.38;;;-3.78;96.31
68580;BME280;55555;52.136;5.424;2022-12-18T02:04:23;103100.81;;;-3.84;96.31
68580;BME280;55555;52.136;5.424;2022-12-18T02:07:00;103097.06;;;-3.89;96.64
68580;BME280;55555;52.136;5.424;2022-12-18T02:09:43;103100.47;;;-3.90;96.26
68580;BME280;55555;52.136;5.424;2022-12-18T02:12:21;103110.75;;;-3.92;96.43
68580;BME280;55555;52.136;5.424;2022-12-18T02:15:05;103094.06;;;-3.95;96.10
68580;BME280;55555;52.136;5.424;2022-12-18T02:18:14;103099.72;;;-4.02;96.54
68580;BME280;55555;52.136;5.424;2022-12-18T02:21:08;103094.50;;;-4.02;95.86
68580;BME280;55555;52.136;5.424;2022-12-18T02:26:55;103095.72;;;-4.11;96.01
68580;BME280;55555;52.136;5.424;2022-12-18T02:29:34;103105.31;;;-4.10;96.23
68580;BME280;55555;52.136;5.424;2022-12-18T02:32:09;103105.16;;;-4.13;96.13
68580;BME280;55555;52.136;5.424;2022-12-18T02:34:40;103102.16;;;-4.19;96.02
68580;BME280;55555;52.136;5.424;2022-12-18T02:37:15;103101.34;;;-4.18;95.83
68580;BME280;55555;52.136;5.424;2022-12-18T02:39:46;103105.84;;;-4.15;96.05
68580;BME280;55555;52.136;5.424;2022-12-18T02:42:16;103095.44;;;-4.15;96.34
68580;BME280;55555;52.136;5.424;2022-12-18T02:44:48;103089.25;;;-4.17;96.05
68580;BME280;55555;52.136;5.424;2022-12-18T02:47:23;103092.56;;;-4.20;95.97
68580;BME280;55555;52.136;5.424;2022-12-18T02:56:10;103084.09;;;-4.30;96.21
68580;BME280;55555;52.136;5.424;2022-12-18T02:59:16;103083.94;;;-4.33;96.13
68580;BME280;55555;52.136;5.424;2022-12-18T03:04:50;103076.53;;;-4.41;96.19
68580;BME280;55555;52.136;5.424;2022-12-18T03:07:37;103071.06;;;-4.45;96.01
68580;BME280;55555;52.136;5.424;2022-12-18T03:10:32;103060.47;;;-4.48;96.27
68580;BME280;55555;52.136;5.424;2022-12-18T03:13:10;103063.66;;;-4.52;96.34
68580;BME280;55555;52.136;5.424;2022-12-18T03:15:47;103065.00;;;-4.59;96.21
68580;BME280;55555;52.136;5.424;2022-12-18T03:18:19;103065.19;;;-4.56;96.45
68580;BME280;55555;52.136;5.424;2022-12-18T03:20:56;103066.91;;;-4.56;96.14
68580;BME280;55555;52.136;5.424;2022-12-18T03:23:30;103058.91;;;-4.59;95.93
68580;BME280;55555;52.136;5.424;2022-12-18T03:26:05;103057.09;;;-4.60;96.34
68580;BME280;55555;52.136;5.424;2022-12-18T03:28:42;103054.31;;;-4.63;96.23
68580;BME280;55555;52.136;5.424;2022-12-18T03:31:20;103053.25;;;-4.67;96.18
68580;BME280;55555;52.136;5.424;2022-12-18T03:36:34;103043.06;;;-4.77;96.52
68580;BME280;55555;52.136;5.424;2022-12-18T03:39:02;103048.44;;;-4.74;95.93
68580;BME280;55555;52.136;5.424;2022-12-18T03:41:47;103036.78;;;-4.81;95.71
68580;BME280;55555;52.136;5.424;2022-12-18T03:44:42;103032.38;;;-4.82;95.81
68580;BME280;55555;52.136;5.424;2022-12-18T03:50:37;103033.59;;;-4.90;96.14
68580;BME280;55555;52.136;5.424;2022-12-18T03:53:58;103032.91;;;-4.87;95.56
68580;BME280;55555;52.136;5.424;2022-12-18T03:56:38;103038.28;;;-4.84;95.62
68580;BME280;55555;52.136;5.424;2022-12-18T03:59:11;103031.91;;;-4.89;95.73
68580;BME280;55555;52.136;5.424;2022-12-18T04:01:45;103024.81;;;-4.92;95.95
68580;BME280;55555;52.136;5.424;2022-12-18T04:04:15;103030.81;;;-4.93;96.24
68580;BME280;55555;52.136;5.424;2022-12-18T04:06:45;103029.81;;;-4.95;96.00
68580;BME280;55555;52.136;5.424;2022-12-18T04:09:14;103019.41;;;-4.95;95.65
68580;BME280;55555;52.136;5.424;2022-12-18T04:11:46;103021.84;;;-4.98;95.43
68580;BME280;55555;52.136;5.424;2022-12-18T04:14:14;103022.22;;;-4.92;95.60
68580;BME280;55555;52.136;5.424;2022-12-18T04:16:46;103012.94;;;-4.88;95.48
68580;BME280;55555;52.136;5.424;2022-12-18T04:19:16;102999.88;;;-4.90;95.96
68580;BME280;55555;52.136;5.424;2022-12-18T04:21:46;103006.75;;;-4.90;95.95
68580;BME280;55555;52.136;5.424;2022-12-18T04:24:13;103011.94;;;-4.90;95.33
68580;BME280;55555;52.136;5.424;2022-12-18T04:26:50;103002.47;;;-4.90;95.44
68580;BME280;55555;52.136;5.424;2022-12-18T04:29:22;102994.69;;;-4.90;95.73
68580;BME280;55555;52.136;5.424;2022-12-18T04:31:49;102995.38;;;-4.92;95.60
68580;BME280;55555;52.136;5.424;2022-12-18T04:34:18;102992.78;;;-4.92;95.29
68580;BME280;55555;52.136;5.424;2022-12-18T04:36:49;103004.75;;;-4.94;95.50
68580;BME280;55555;52.136;5.424;2022-12-18T04:39:16;103002.06;;;-4.96;95.67
68580;BME280;55555;52.136;5.424;2022-12-18T04:41:44;102996.38;;;-4.90;95.45
68580;BME280;55555;52.136;5.424;2022-12-18T04:44:12;103007.44;;;-4.93;95.66
68580;BME280;55555;52.136;5.424;2022-12-18T04:46:39;103010.63;;;-4.97;95.81
68580;BME280;55555;52.136;5.424;2022-12-18T04:49:06;103015.66;;;-5.00;95.23
68580;BME280;55555;52.136;5.424;2022-12-18T04:51:34;103023.53;;;-4.98;95.53
68580;BME280;55555;52.136;5.424;2022-12-18T04:54:01;103030.44;;;-4.99;95.33
68580;BME280;55555;52.136;5.424;2022-12-18T04:56:30;103028.31;;;-5.04;95.44
68580;BME280;55555;52.136;5.424;2022-12-18T04:58:57;103029.81;;;-5.08;95.69
68580;BME280;55555;52.136;5.424;2022-12-18T05:01:24;103032.41;;;-5.08;95.16
68580;BME280;55555;52.136;5.424;2022-12-18T05:04:00;103041.19;;;-5.06;95.54
68580;BME280;55555;52.136;5.424;2022-12-18T05:06:28;103043.59;;;-5.09;95.28
68580;BME280;55555;52.136;5.424;2022-12-18T05:08:55;103047.91;;;-5.09;95.52
68580;BME280;55555;52.136;5.424;2022-12-18T05:11:22;103054.78;;;-5.10;95.39
68580;BME280;55555;52.136;5.424;2022-12-18T05:13:49;103052.09;;;-5.11;95.70
68580;BME280;55555;52.136;5.424;2022-12-18T05:16:16;103047.78;;;-5.11;95.04
68580;BME280;55555;52.136;5.424;2022-12-18T05:18:43;103053.34;;;-5.18;94.80
68580;BME280;55555;52.136;5.424;2022-12-18T05:21:12;103056.16;;;-5.15;95.34
68580;BME280;55555;52.136;5.424;2022-12-18T05:23:39;103054.56;;;-5.13;95.26
68580;BME280;55555;52.136;5.424;2022-12-18T05:26:07;103061.47;;;-5.13;95.27
68580;BME280;55555;52.136;5.424;2022-12-18T05:28:35;103065.53;;;-5.17;95.01
68580;BME280;55555;52.136;5.424;2022-12-18T05:31:04;103070.72;;;-5.17;95.27
68580;BME280;55555;52.136;5.424;2022-12-18T05:33:33;103077.59;;;-5.18;95.35
68580;BME280;55555;52.136;5.424;2022-12-18T05:36:03;103077.91;;;-5.13;95.02
68580;BME280;55555;52.136;5.424;2022-12-18T05:38:34;103076.81;;;-5.17;95.12
68580;BME280;55555;52.136;5.424;2022-12-18T05:41:02;103073.31;;;-5.17;95.45
68580;BME280;55555;52.136;5.424;2022-12-18T05:43:30;103065.53;;;-5.17;95.21
68580;BME280;55555;52.136;5.424;2022-12-18T05:45:58;103058.53;;;-5.18;95.09
68580;BME280;55555;52.136;5.424;2022-12-18T05:48:33;103054.47;;;-5.15;95.50
68580;BME280;55555;52.136;5.424;2022-12-18T05:51:09;103049.97;;;-5.17;95.19
68580;BME280;55555;52.136;5.424;2022-12-18T05:53:37;103045.41;;;-5.21;94.98
68580;BME280;55555;52.136;5.424;2022-12-18T05:56:12;103045.41;;;-5.21;95.31
68580;BME280;55555;52.136;5.424;2022-12-18T05:58:41;103042.00;;;-5.20;95.47
68580;BME280;55555;52.136;5.424;2022-12-18T06:01:11;103041.22;;;-5.19;95.11
68580;BME280;55555;52.136;5.424;2022-12-18T06:03:40;103036.50;;;-5.25;95.45
68580;BME280;55555;52.136;5.424;2022-12-18T06:06:23;103031.00;;;-5.29;95.17
68580;BME280;55555;52.136;5.424;2022-12-18T06:08:54;103036.41;;;-5.26;95.54
68580;BME280;55555;52.136;5.424;2022-12-18T06:11:23;103029.25;;;-5.30;95.58
68580;BME280;55555;52.136;5.424;2022-12-18T06:13:53;103033.44;;;-5.32;95.73
68580;BME280;55555;52.136;5.424;2022-12-18T06:16:25;103026.34;;;-5.35;95.30
68580;BME280;55555;52.136;5.424;2022-12-18T06:18:56;103019.13;;;-5.39;95.32
68580;BME280;55555;52.136;5.424;2022-12-18T06:21:27;103017.97;;;-5.44;95.40
68580;BME280;55555;52.136;5.424;2022-12-18T06:23:55;103009.56;;;-5.40;95.25
68580;BME280;55555;52.136;5.424;2022-12-18T06:26:23;103013.66;;;-5.43;95.55
68580;BME280;55555;52.136;5.424;2022-12-18T06:28:53;103018.66;;;-5.46;95.49
68580;BME280;55555;52.136;5.424;2022-12-18T06:31:21;103009.06;;;-5.47;95.42
68580;BME280;55555;52.136;5.424;2022-12-18T06:33:48;103005.97;;;-5.55;95.46
68580;BME280;55555;52.136;5.424;2022-12-18T06:36:16;103004.06;;;-5.58;95.72
68580;BME280;55555;52.136;5.424;2022-12-18T06:38:43;102999.41;;;-5.63;95.15
68580;BME280;55555;52.136;5.424;2022-12-18T06:41:13;103001.88;;;-5.65;95.05
68580;BME280;55555;52.136;5.424;2022-12-18T06:43:43;103002.69;;;-5.66;95.72
68580;BME280;55555;52.136;5.424;2022-12-18T06:46:10;103000.66;;;-5.70;95.76
68580;BME280;55555;52.136;5.424;2022-12-18T06:48:38;102991.88;;;-5.72;94.99
68580;BME280;55555;52.136;5.424;2022-12-18T06:51:06;102987.31;;;-5.76;94.79
68580;BME280;55555;52.136;5.424;2022-12-18T06:53:33;102977.97;;;-5.74;95.46
68580;BME280;55555;52.136;5.424;2022-12-18T06:56:05;102983.81;;;-5.76;95.48
68580;BME280;55555;52.136;5.424;2022-12-18T06:58:36;102980.13;;;-5.80;95.28
68580;BME280;55555;52.136;5.424;2022-12-18T07:01:06;102979.13;;;-5.82;95.51
68580;BME280;55555;52.136;5.424;2022-12-18T07:03:34;102974.66;;;-5.84;95.64
68580;BME280;55555;52.136;5.424;2022-12-18T07:06:03;102977.03;;;-5.88;95.72
68580;BME280;55555;52.136;5.424;2022-12-18T07:08:31;102972.47;;;-5.92;95.29
68580;BME280;55555;52.136;5.424;2022-12-18T07:10:59;102964.00;;;-5.89;95.44
68580;BME280;55555;52.136;5.424;2022-12-18T07:13:30;102974.75;;;-5.96;95.62
68580;BME280;55555;52.136;5.424;2022-12-18T07:16:16;102975.72;;;-5.94;95.05
68580;BME280;55555;52.136;5.424;2022-12-18T07:18:51;102956.22;;;-5.89;94.66
68580;BME280;55555;52.136;5.424;2022-12-18T07:21:19;102954.53;;;-5.88;95.41
68580;BME280;55555;52.136;5.424;2022-12-18T07:23:47;102959.41;;;-5.93;95.16
68580;BME280;55555;52.136;5.424;2022-12-18T07:26:17;102964.47;;;-5.95;95.77
68580;BME280;55555;52.136;5.424;2022-12-18T07:28:46;102958.44;;;-5.95;94.83
68580;BME280;55555;52.136;5.424;2022-12-18T07:31:16;102956.69;;;-5.95;95.75
68580;BME280;55555;52.136;5.424;2022-12-18T07:33:47;102952.41;;;-5.94;95.39
68580;BME280;55555;52.136;5.424;2022-12-18T07:36:15;102942.66;;;-5.98;95.08
68580;BME280;55555;52.136;5.424;2022-12-18T07:38:42;102937.28;;;-6.01;94.77
68580;BME280;55555;52.136;5.424;2022-12-18T07:41:11;102936.38;;;-6.02;95.07
68580;BME280;55555;52.136;5.424;2022-12-18T07:43:40;102943.34;;;-6.01;95.66
68580;BME280;55555;52.136;5.424;2022-12-18T07:46:09;102940.88;;;-5.99;95.45
68580;BME280;55555;52.136;5.424;2022-12-18T07:48:38;102925.91;;;-6.03;94.63
68580;BME280;55555;52.136;5.424;2022-12-18T07:51:06;102916.44;;;-6.03;95.52
68580;BME280;55555;52.136;5.424;2022-12-18T07:53:37;102923.31;;;-6.03;95.37
68580;BME280;55555;52.136;5.424;2022-12-18T07:56:08;102913.38;;;-5.97;94.94
68580;BME280;55555;52.136;5.424;2022-12-18T07:58:54;102913.97;;;-6.01;95.61
68580;BME280;55555;52.136;5.424;2022-12-18T08:01:21;102911.69;;;-5.97;95.12
68580;BME280;55555;52.136;5.424;2022-12-18T08:03:48;102908.38;;;-5.94;95.27
68580;BME280;55555;52.136;5.424;2022-12-18T08:06:18;102909.28;;;-5.94;95.70
68580;BME280;55555;52.136;5.424;2022-12-18T08:08:53;102904.31;;;-5.91;95.62
68580;BME280;55555;52.136;5.424;2022-12-18T08:11:23;102894.41;;;-5.83;95.13
68580;BME280;55555;52.136;5.424;2022-12-18T08:13:52;102887.63;;;-5.81;95.29
68580;BME280;55555;52.136;5.424;2022-12-18T08:16:20;102889.75;;;-5.75;95.54
68580;BME280;55555;52.136;5.424;2022-12-18T08:18:48;102893.50;;;-5.70;95.00
68580;BME280;55555;52.136;5.424;2022-12-18T08:21:19;102890.91;;;-5.70;95.36
68580;BME280;55555;52.136;5.424;2022-12-18T08:23:51;102896.78;;;-5.60;95.71
68580;BME280;55555;52.136;5.424;2022-12-18T08:26:20;102900.59;;;-5.55;95.24
68580;BME280;55555;52.136;5.424;2022-12-18T08:28:49;102905.94;;;-5.38;95.53
68580;BME280;55555;52.136;5.424;2022-12-18T08:31:18;102917.63;;;-5.45;95.61
68580;BME280;55555;52.136;5.424;2022-12-18T08:33:49;102921.41;;;-5.40;95.28
68580;BME280;55555;52.136;5.424;2022-12-18T08:36:18;102924.50;;;-5.32;96.14
68580;BME280;55555;52.136;5.424;2022-12-18T08:38:46;102919.69;;;-5.26;95.87
68580;BME280;55555;52.136;5.424;2022-12-18T08:41:15;102922.06;;;-5.16;95.74
68580;BME280;55555;52.136;5.424;2022-12-18T08:43:43;102918.19;;;-5.09;95.50
68580;BME280;55555;52.136;5.424;2022-12-18T08:46:33;102909.88;;;-5.04;95.56
68580;BME280;55555;52.136;5.424;2022-12-18T08:49:03;102903.88;;;-5.03;95.69
68580;BME280;55555;52.136;5.424;2022-12-18T08:51:32;102912.31;;;-4.92;95.75
68580;BME280;55555;52.136;5.424;2022-12-18T08:53:59;102914.50;;;-4.85;95.71
68580;BME280;55555;52.136;5.424;2022-12-18T08:56:28;102906.81;;;-4.84;96.20
68580;BME280;55555;52.136;5.424;2022-12-18T08:58:56;102902.00;;;-4.78;95.79
68580;BME280;55555;52.136;5.424;2022-12-18T09:01:24;102902.47;;;-4.70;96.69
68580;BME280;55555;52.136;5.424;2022-12-18T09:03:51;102912.16;;;-4.67;95.91
68580;BME280;55555;52.136;5.424;2022-12-18T09:06:20;102921.09;;;-4.62;96.01
68580;BME280;55555;52.136;5.424;2022-12-18T09:08:48;102920.84;;;-4.52;96.08
68580;BME280;55555;52.136;5.424;2022-12-18T09:11:27;102910.94;;;-4.45;96.41
68580;BME280;55555;52.136;5.424;2022-12-18T09:13:55;102907.09;;;-4.36;96.55
68580;BME280;55555;52.136;5.424;2022-12-18T09:16:24;102910.69;;;-4.34;96.73
68580;BME280;55555;52.136;5.424;2022-12-18T09:18:58;102905.03;;;-4.27;96.35
68580;BME280;55555;52.136;5.424;2022-12-18T09:21:28;102896.97;;;-4.17;96.51
68580;BME280;55555;52.136;5.424;2022-12-18T09:23:58;102895.72;;;-4.09;96.07
68580;BME280;55555;52.136;5.424;2022-12-18T09:26:26;102900.41;;;-4.03;95.59
68580;BME280;55555;52.136;5.424;2022-12-18T09:28:54;102899.03;;;-3.97;96.35
68580;BME280;55555;52.136;5.424;2022-12-18T09:31:23;102903.88;;;-3.88;95.99
68580;BME280;55555;52.136;5.424;2022-12-18T09:33:51;102898.03;;;-3.84;95.85
68580;BME280;55555;52.136;5.424;2022-12-18T09:36:18;102886.38;;;-3.76;95.42
68580;BME280;55555;52.136;5.424;2022-12-18T09:38:47;102882.34;;;-3.71;95.78
68580;BME280;55555;52.136;5.424;2022-12-18T09:43:56;102882.22;;;-3.58;95.98
68580;BME280;55555;52.136;5.424;2022-12-18T09:46:36;102866.16;;;-3.51;95.50
68580;BME280;55555;52.136;5.424;2022-12-18T09:49:12;102869.06;;;-3.45;95.31
68580;BME280;55555;52.136;5.424;2022-12-18T09:51:48;102869.44;;;-3.39;95.67
68580;BME280;55555;52.136;5.424;2022-12-18T09:54:30;102868.06;;;-3.32;96.03
68580;BME280;55555;52.136;5.424;2022-12-18T09:57:02;102851.88;;;-3.26;95.20
68580;BME280;55555;52.136;5.424;2022-12-18T09:59:33;102857.41;;;-3.20;95.69
68580;BME280;55555;52.136;5.424;2022-12-18T10:02:17;102849.97;;;-3.14;95.29
68580;BME280;55555;52.136;5.424;2022-12-18T10:10:38;102853.53;;;-2.96;95.41
68580;BME280;55555;52.136;5.424;2022-12-18T10:13:28;102846.03;;;-2.90;95.75
68580;BME280;55555;52.136;5.424;2022-12-18T10:16:34;102841.25;;;-2.82;95.83
68580;BME280;55555;52.136;5.424;2022-12-18T10:19:34;102836.34;;;-2.76;94.56
68580;BME280;55555;52.136;5.424;2022-12-18T10:22:30;102839.25;;;-2.70;95.51
68580;BME280;55555;52.136;5.424;2022-12-18T10:25:28;102836.09;;;-2.65;95.35
68580;BME280;55555;52.136;5.424;2022-12-18T10:28:18;102845.06;;;-2.60;95.97
68580;BME280;55555;52.136;5.424;2022-12-18T10:30:46;102840.78;;;-2.58;94.99
68580;BME280;55555;52.136;5.424;2022-12-18T10:33:20;102834.84;;;-2.55;94.33
68580;BME280;55555;52.136;5.424;2022-12-18T10:35:53;102822.91;;;-2.51;94.17
68580;BME280;55555;52.136;5.424;2022-12-18T10:38:26;102813.50;;;-2.48;94.93
68580;BME280;55555;52.136;5.424;2022-12-18T10:40:59;102818.06;;;-2.44;94.71
68580;BME280;55555;52.136;5.424;2022-12-18T10:43:38;102827.66;;;-2.43;94.02
68580;BME280;55555;52.136;5.424;2022-12-18T10:53:59;102803.28;;;-2.27;94.01
68580;BME280;55555;52.136;5.424;2022-12-18T10:56:30;102807.81;;;-2.23;94.09
68580;BME280;55555;52.136;5.424;2022-12-18T10:59:02;102799.25;;;-2.21;93.58
68580;BME280;55555;52.136;5.424;2022-12-18T11:01:53;102796.00;;;-2.16;94.02
68580;BME280;55555;52.136;5.424;2022-12-18T11:04:28;102784.06;;;-2.11;94.39
68580;BME280;55555;52.136;5.424;2022-12-18T11:07:00;102774.63;;;-2.09;94.02
68580;BME280;55555;52.136;5.424;2022-12-18T11:09:34;102780.94;;;-2.04;94.33
68580;BME280;55555;52.136;5.424;2022-12-18T11:12:05;102772.38;;;-2.02;94.47
68580;BME280;55555;52.136;5.424;2022-12-18T11:14:47;102767.38;;;-1.97;94.66
68580;BME280;55555;52.136;5.424;2022-12-18T11:17:21;102766.66;;;-1.95;93.82
68580;BME280;55555;52.136;5.424;2022-12-18T11:19:55;102760.81;;;-1.89;94.97
68580;BME280;55555;52.136;5.424;2022-12-18T11:22:32;102753.97;;;-1.87;94.28
68580;BME280;55555;52.136;5.424;2022-12-18T11:25:04;102748.81;;;-1.86;93.89
68580;BME280;55555;52.136;5.424;2022-12-18T11:28:25;102737.75;;;-1.80;94.16
68580;BME280;55555;52.136;5.424;2022-12-18T11:31:27;102737.03;;;-1.77;93.70
68580;BME280;55555;52.136;5.424;2022-12-18T11:36:55;102744.31;;;-1.70;93.79
68580;BME280;55555;52.136;5.424;2022-12-18T11:39:38;102745.44;;;-1.65;92.08
68580;BME280;55555;52.136;5.424;2022-12-18T11:53:03;102731.56;;;-1.45;93.10
68580;BME280;55555;52.136;5.424;2022-12-18T12:04:28;102712.13;;;-1.32;93.29
68580;BME280;55555;52.136;5.424;2022-12-18T12:09:53;102699.19;;;-1.29;92.88
68580;BME280;55555;52.136;5.424;2022-12-18T12:19:06;102679.50;;;-1.23;92.01
68580;BME280;55555;52.136;5.424;2022-12-18T12:25:35;102674.53;;;-1.17;92.51
68580;BME280;55555;52.136;5.424;2022-12-18T12:31:28;102668.47;;;-1.16;91.20
68580;BME280;55555;52.136;5.424;2022-12-18T12:34:08;102667.78;;;-1.12;92.10
68580;BME280;55555;52.136;5.424;2022-12-18T12:39:46;102659.25;;;-1.07;91.69
68580;BME280;55555;52.136;5.424;2022-12-18T12:42:32;102654.28;;;-1.01;91.99
68580;BME280;55555;52.136;5.424;2022-12-18T12:45:33;102646.53;;;-1.00;91.91
68580;BME280;55555;52.136;5.424;2022-12-18T12:48:07;102647.34;;;-1.01;91.39
68580;BME280;55555;52.136;5.424;2022-12-18T12:50:43;102637.03;;;-0.98;91.64
68580;BME280;55555;52.136;5.424;2022-12-18T12:53:21;102631.91;;;-0.95;91.96
68580;BME280;55555;52.136;5.424;2022-12-18T12:55:53;102636.25;;;-0.95;91.79
68580;BME280;55555;52.136;5.424;2022-12-18T12:58:24;102627.53;;;-0.96;90.71
68580;BME280;55555;52.136;5.424;2022-12-18T13:01:14;102625.94;;;-0.92;91.35
68580;BME280;55555;52.136;5.424;2022-12-18T13:06:50;102624.28;;;-0.90;90.99
68580;BME280;55555;52.136;5.424;2022-12-18T13:09:30;102627.94;;;-0.87;92.09
68580;BME280;55555;52.136;5.424;2022-12-18T13:12:10;102626.44;;;-0.80;91.80
68580;BME280;55555;52.136;5.424;2022-12-18T13:15:20;102627.28;;;-0.81;91.87
68580;BME280;55555;52.136;5.424;2022-12-18T13:28:54;102624.06;;;-0.74;91.16
68580;BME280;55555;52.136;5.424;2022-12-18T13:34:22;102608.41;;;-0.74;91.42
68580;BME280;55555;52.136;5.424;2022-12-18T13:39:58;102603.16;;;-0.74;90.59
68580;BME280;55555;52.136;5.424;2022-12-18T13:42:37;102599.81;;;-0.71;90.51
68580;BME280;55555;52.136;5.424;2022-12-18T13:45:43;102591.06;;;-0.72;90.47
68580;BME280;55555;52.136;5.424;2022-12-18T13:48:18;102585.09;;;-0.69;91.35
68580;BME280;55555;52.136;5.424;2022-12-18T13:51:10;102577.25;;;-0.69;90.43
68580;BME280;55555;52.136;5.424;2022-12-18T13:54:06;102573.81;;;-0.68;90.86
68580;BME280;55555;52.136;5.424;2022-12-18T13:56:49;102565.22;;;-0.64;91.89
68580;BME280;55555;52.136;5.424;2022-12-18T13:59:33;102567.00;;;-0.63;91.91
68580;BME280;55555;52.136;5.424;2022-12-18T14:02:13;102566.91;;;-0.66;90.39
68580;BME280;55555;52.136;5.424;2022-12-18T14:04:45;102558.34;;;-0.62;91.67
68580;BME280;55555;52.136;5.424;2022-12-18T14:07:15;102554.00;;;-0.62;92.26
68580;BME280;55555;52.136;5.424;2022-12-18T14:09:58;102550.50;;;-0.62;90.45
68580;BME280;55555;52.136;5.424;2022-12-18T14:12:49;102551.41;;;-0.62;90.09
68580;BME280;55555;52.136;5.424;2022-12-18T14:17:58;102539.16;;;-0.63;90.73
68580;BME280;55555;52.136;5.424;2022-12-18T14:20:43;102529.59;;;-0.62;90.47
68580;BME280;55555;52.136;5.424;2022-12-18T14:26:28;102532.28;;;-0.61;88.40
68580;BME280;55555;52.136;5.424;2022-12-18T14:28:58;102522.78;;;-0.59;89.76
68580;BME280;55555;52.136;5.424;2022-12-18T14:31:29;102515.13;;;-0.54;89.91
68580;BME280;55555;52.136;5.424;2022-12-18T14:33:58;102516.84;;;-0.55;90.26
68580;BME280;55555;52.136;5.424;2022-12-18T14:36:27;102499.38;;;-0.56;90.04
68580;BME280;55555;52.136;5.424;2022-12-18T14:38:57;102510.72;;;-0.55;89.68
68580;BME280;55555;52.136;5.424;2022-12-18T14:41:25;102507.31;;;-0.53;90.39
68580;BME280;55555;52.136;5.424;2022-12-18T14:43:54;102515.16;;;-0.53;88.96
68580;BME280;55555;52.136;5.424;2022-12-18T14:49:26;102507.31;;;-0.53;88.79
68580;BME280;55555;52.136;5.424;2022-12-18T14:51:59;102498.78;;;-0.49;89.82
68580;BME280;55555;52.136;5.424;2022-12-18T14:54:40;102489.16;;;-0.50;89.17
68580;BME280;55555;52.136;5.424;2022-12-18T14:57:30;102499.66;;;-0.48;89.27
68580;BME280;55555;52.136;5.424;2022-12-18T15:00:07;102496.16;;;-0.49;90.09
68580;BME280;55555;52.136;5.424;2022-12-18T15:02:47;102493.47;;;-0.50;89.40
68580;BME280;55555;52.136;5.424;2022-12-18T15:05:28;102494.25;;;-0.53;88.08
68580;BME280;55555;52.136;5.424;2022-12-18T15:07:58;102494.31;;;-0.51;88.82
68580;BME280;55555;52.136;5.424;2022-12-18T15:10:31;102490.03;;;-0.49;89.41